createdAt,value
2023-03-08T00:01:34.245Z,-0.70
2023-03-08T00:04:04.324Z,-0.70
2023-03-08T00:06:32.432Z,-0.70
2023-03-08T00:09:06.887Z,-0.70
2023-03-08T00:11:35.980Z,-0.60
2023-03-08T00:14:08.744Z,-0.60
2023-03-08T00:16:37.894Z,-0.60
2023-03-08T00:19:06.475Z,-0.60
2023-03-08T00:21:35.122Z,-0.50
2023-03-08T00:24:03.286Z,-0.40
2023-03-08T00:26:39.662Z,-0.50
2023-03-08T00:29:09.707Z,-0.40
2023-03-08T00:32:06.864Z,-0.40
2023-03-08T00:34:35.160Z,-0.50
2023-03-08T00:37:04.357Z,-0.60
2023-03-08T00:39:32.576Z,-0.70
2023-03-08T00:42:00.768Z,-0.80
2023-03-08T00:44:30.141Z,-0.80
2023-03-08T00:46:58.274Z,-0.80
2023-03-08T00:49:26.505Z,-0.90
2023-03-08T00:55:26.506Z,-0.80
2023-03-08T00:57:54.473Z,-0.90
2023-03-08T01:00:25.176Z,-1.00
2023-03-08T01:02:53.181Z,-1.00
2023-03-08T01:05:21.329Z,-1.00
2023-03-08T01:07:49.338Z,-1.00
2023-03-08T01:10:17.617Z,-1.10
2023-03-08T01:12:45.546Z,-1.10
2023-03-08T01:15:13.909Z,-1.10
2023-03-08T01:17:43.176Z,-1.20
2023-03-08T01:20:12.548Z,-1.20
2023-03-08T01:22:40.575Z,-1.30
2023-03-08T01:25:09.099Z,-1.40
2023-03-08T01:27:37.086Z,-1.30
2023-03-08T01:30:05.585Z,-1.30
2023-03-08T01:32:33.591Z,-1.30
2023-03-08T01:35:04.669Z,-1.30
2023-03-08T01:37:34.286Z,-1.30
2023-03-08T01:40:02.214Z,-1.40
2023-03-08T01:42:30.363Z,-1.30
2023-03-08T01:45:00.435Z,-1.30
2023-03-08T01:47:29.964Z,-1.30
2023-03-08T01:50:00.904Z,-1.40
2023-03-08T01:52:34.065Z,-1.40
2023-03-08T01:55:04.700Z,-1.40
2023-03-08T01:57:36.068Z,-1.50
2023-03-08T02:00:08.939Z,-1.50
2023-03-08T02:02:42.888Z,-1.60
2023-03-08T02:05:12.204Z,-1.50
2023-03-08T02:07:41.589Z,-1.50
2023-03-08T02:10:11.125Z,-1.50
2023-03-08T02:12:40.052Z,-1.50
2023-03-08T02:15:11.854Z,-1.60
2023-03-08T02:17:42.005Z,-1.50
2023-03-08T02:20:15.932Z,-1.60
2023-03-08T02:22:45.968Z,-1.50
2023-03-08T02:25:15.801Z,-1.50
2023-03-08T02:27:44.232Z,-1.60
2023-03-08T02:30:13.999Z,-1.70
2023-03-08T02:32:42.298Z,-1.70
2023-03-08T02:35:10.964Z,-1.60
2023-03-08T02:37:39.077Z,-1.60
2023-03-08T02:40:11.523Z,-1.60
2023-03-08T02:42:39.830Z,-1.60
2023-03-08T02:45:09.000Z,-1.50
2023-03-08T02:47:37.694Z,-1.50
2023-03-08T02:50:06.340Z,-1.50
2023-03-08T02:52:34.457Z,-1.50
2023-03-08T02:55:02.584Z,-1.50
2023-03-08T02:57:32.016Z,-1.60
2023-03-08T03:00:00.111Z,-1.60
2023-03-08T03:02:28.216Z,-1.50
2023-03-08T03:04:56.254Z,-1.50
2023-03-08T03:07:24.247Z,-1.50
2023-03-08T03:09:52.309Z,-1.60
2023-03-08T03:12:20.251Z,-1.60
2023-03-08T03:14:49.590Z,-1.70
2023-03-08T03:17:17.574Z,-1.60
2023-03-08T03:19:45.713Z,-1.70
2023-03-08T03:22:13.750Z,-1.70
2023-03-08T03:24:41.765Z,-1.60
2023-03-08T03:27:09.736Z,-1.50
2023-03-08T03:29:38.590Z,-1.30
2023-03-08T03:32:08.824Z,-1.20
2023-03-08T03:34:36.864Z,-1.10
2023-03-08T03:37:05.402Z,-1.10
2023-03-08T03:39:36.669Z,-1.10
2023-03-08T03:42:04.811Z,-0.90
2023-03-08T03:44:33.044Z,-0.90
2023-03-08T03:47:01.158Z,-0.90
2023-03-08T03:49:30.981Z,-0.90
2023-03-08T03:51:59.008Z,-0.90
2023-03-08T03:54:27.394Z,-1.00
2023-03-08T03:56:58.423Z,-1.10
2023-03-08T03:59:27.002Z,-1.10
2023-03-08T04:01:55.094Z,-1.40
2023-03-08T04:04:23.298Z,-1.50
2023-03-08T04:06:52.681Z,-1.60
2023-03-08T04:09:21.109Z,-1.70
2023-03-08T04:11:50.196Z,-1.80
2023-03-08T04:14:18.375Z,-1.90
2023-03-08T04:16:46.385Z,-1.90
2023-03-08T04:19:14.761Z,-2.10
2023-03-08T04:21:42.893Z,-2.10
2023-03-08T04:24:12.343Z,-2.20
2023-03-08T04:26:40.290Z,-2.20
2023-03-08T04:29:08.310Z,-2.30
2023-03-08T04:31:37.188Z,-2.40
2023-03-08T04:34:05.634Z,-2.50
2023-03-08T04:36:33.954Z,-2.50
2023-03-08T04:39:02.128Z,-2.60
2023-03-08T04:41:31.697Z,-2.60
2023-03-08T04:43:59.658Z,-2.60
2023-03-08T04:46:29.162Z,-2.70
2023-03-08T04:48:57.264Z,-2.70
2023-03-08T04:51:27.336Z,-2.70
2023-03-08T04:53:55.586Z,-2.70
2023-03-08T04:56:23.563Z,-2.80
2023-03-08T04:58:52.911Z,-2.80
2023-03-08T05:01:23.168Z,-2.90
2023-03-08T05:03:52.506Z,-2.90
2023-03-08T05:06:21.378Z,-3.00
2023-03-08T05:08:49.315Z,-3.00
2023-03-08T05:11:20.252Z,-3.00
2023-03-08T05:13:48.351Z,-3.10
2023-03-08T05:16:17.890Z,-3.10
2023-03-08T05:18:45.805Z,-3.10
2023-03-08T05:21:15.381Z,-3.10
2023-03-08T05:23:43.340Z,-3.20
2023-03-08T05:26:14.242Z,-3.10
2023-03-08T05:28:42.783Z,-3.10
2023-03-08T05:31:13.841Z,-3.20
2023-03-08T05:33:46.427Z,-3.20
2023-03-08T05:36:15.681Z,-3.20
2023-03-08T05:38:44.070Z,-3.20
2023-03-08T05:41:15.010Z,-3.20
2023-03-08T05:43:43.182Z,-3.20
2023-03-08T05:46:14.159Z,-3.20
2023-03-08T05:48:43.640Z,-3.20
2023-03-08T05:51:13.870Z,-3.20
2023-03-08T05:53:42.338Z,-3.20
2023-03-08T05:56:11.895Z,-3.10
2023-03-08T05:58:42.924Z,-3.00
2023-03-08T06:01:13.531Z,-3.00
2023-03-08T06:03:42.986Z,-2.90
2023-03-08T06:06:11.311Z,-2.80
2023-03-08T06:08:39.475Z,-2.80
2023-03-08T06:11:07.877Z,-2.70
2023-03-08T06:13:36.292Z,-2.70
2023-03-08T06:16:05.080Z,-2.60
2023-03-08T06:18:33.925Z,-2.60
2023-03-08T06:21:04.943Z,-2.50
2023-03-08T06:23:34.732Z,-2.50
2023-03-08T06:26:03.250Z,-2.40
2023-03-08T06:28:32.118Z,-2.40
2023-03-08T06:31:00.653Z,-2.30
2023-03-08T06:33:31.515Z,-2.30
2023-03-08T06:36:01.318Z,-2.20
2023-03-08T06:38:33.447Z,-2.20
2023-03-08T06:41:01.937Z,-2.10
2023-03-08T06:43:30.683Z,-2.00
2023-03-08T06:45:59.054Z,-1.90
2023-03-08T06:48:27.145Z,-1.80
2023-03-08T06:51:07.838Z,-1.70
2023-03-08T06:53:38.249Z,-1.70
2023-03-08T06:56:07.832Z,-1.60
2023-03-08T06:58:36.295Z,-1.50
2023-03-08T07:01:05.658Z,-1.30
2023-03-08T07:03:34.374Z,-1.20
2023-03-08T07:06:05.902Z,-1.10
2023-03-08T07:08:33.863Z,-1.10
2023-03-08T07:11:03.786Z,-0.90
2023-03-08T07:13:31.680Z,-0.90
2023-03-08T07:15:59.894Z,-0.80
2023-03-08T07:18:27.954Z,-0.60
2023-03-08T07:20:57.479Z,-0.50
2023-03-08T07:23:25.664Z,-0.40
2023-03-08T07:25:53.988Z,-0.30
2023-03-08T07:28:23.517Z,-0.20
2023-03-08T07:30:53.524Z,-0.10
2023-03-08T07:33:22.316Z,-0.10
2023-03-08T07:35:50.729Z,0.00
2023-03-08T07:38:19.314Z,0.00
2023-03-08T07:40:47.233Z,0.20
2023-03-08T07:43:15.149Z,0.30
2023-03-08T07:45:44.447Z,0.40
2023-03-08T07:48:12.375Z,0.60
2023-03-08T07:50:40.322Z,0.70
2023-03-08T07:53:08.840Z,0.80
2023-03-08T07:55:38.376Z,0.90
2023-03-08T07:58:06.567Z,1.00
2023-03-08T08:00:34.569Z,1.30
2023-03-08T08:03:04.168Z,1.40
2023-03-08T08:05:32.156Z,1.50
2023-03-08T08:08:00.180Z,1.70
2023-03-08T08:10:28.170Z,2.00
2023-03-08T08:12:56.045Z,2.40
2023-03-08T08:15:25.812Z,2.60
2023-03-08T08:17:54.123Z,2.90
2023-03-08T08:20:25.200Z,3.10
2023-03-08T08:22:53.459Z,3.40
2023-03-08T08:25:22.397Z,3.60
2023-03-08T08:27:51.788Z,3.90
2023-03-08T08:30:20.163Z,4.10
2023-03-08T08:32:48.324Z,4.30
2023-03-08T08:35:16.846Z,4.50
2023-03-08T08:37:46.325Z,4.50
2023-03-08T08:40:15.230Z,4.70
2023-03-08T08:42:43.278Z,4.80
2023-03-08T08:45:12.239Z,5.00
2023-03-08T08:47:40.149Z,5.10
2023-03-08T08:50:08.569Z,5.20
2023-03-08T08:52:37.728Z,5.10
2023-03-08T08:55:07.611Z,5.10
2023-03-08T08:57:36.284Z,4.90
2023-03-08T09:00:08.194Z,4.90
2023-03-08T09:02:36.345Z,5.00
2023-03-08T09:05:04.657Z,5.00
2023-03-08T09:07:32.503Z,5.20
2023-03-08T09:10:01.108Z,5.10
2023-03-08T09:12:31.632Z,5.00
2023-03-08T09:15:00.039Z,5.00
2023-03-08T09:17:28.182Z,4.90
2023-03-08T09:19:56.033Z,5.10
2023-03-08T09:22:24.026Z,5.00
2023-03-08T09:24:51.934Z,5.00
2023-03-08T09:27:20.052Z,5.10
2023-03-08T09:29:49.587Z,5.30
2023-03-08T09:32:17.687Z,5.60
2023-03-08T09:34:45.733Z,6.00
2023-03-08T09:37:14.077Z,6.10
2023-03-08T09:39:41.992Z,6.30
2023-03-08T09:42:20.647Z,6.40
2023-03-08T09:45:02.678Z,6.50
2023-03-08T09:47:39.634Z,6.40
2023-03-08T09:50:21.962Z,6.10
2023-03-08T09:52:54.511Z,6.20
2023-03-08T09:55:30.205Z,6.20
2023-03-08T09:58:00.714Z,6.40
2023-03-08T10:00:33.622Z,6.40
2023-03-08T10:03:30.495Z,6.80
2023-03-08T10:06:05.384Z,7.30
2023-03-08T10:08:37.884Z,7.60
2023-03-08T10:11:08.328Z,7.50
2023-03-08T10:13:38.490Z,7.10
2023-03-08T10:16:16.740Z,7.00
2023-03-08T10:18:49.610Z,6.70
2023-03-08T10:21:19.979Z,6.40
2023-03-08T10:23:53.104Z,6.30
2023-03-08T10:26:21.134Z,6.30
2023-03-08T10:28:49.177Z,6.30
2023-03-08T10:31:23.833Z,6.30
2023-03-08T10:34:04.045Z,6.40
2023-03-08T10:36:32.261Z,6.30
2023-03-08T10:39:06.821Z,6.20
2023-03-08T10:41:42.136Z,6.10
2023-03-08T10:44:15.640Z,6.00
2023-03-08T10:46:51.588Z,5.80
2023-03-08T10:49:23.351Z,5.70
2023-03-08T10:51:57.333Z,5.70
2023-03-08T10:54:25.722Z,5.80
2023-03-08T10:56:57.538Z,6.10
2023-03-08T10:59:32.726Z,6.30
2023-03-08T11:02:16.753Z,6.60
2023-03-08T11:04:52.928Z,6.70
2023-03-08T11:07:25.731Z,6.80
2023-03-08T11:09:53.951Z,6.80
2023-03-08T11:12:26.685Z,6.70
2023-03-08T11:14:54.676Z,6.70
2023-03-08T11:17:29.387Z,6.60
2023-03-08T11:20:10.595Z,6.40
2023-03-08T11:22:54.518Z,6.30
2023-03-08T11:25:36.266Z,6.40
2023-03-08T11:28:43.200Z,6.50
2023-03-08T11:31:20.198Z,6.50
2023-03-08T11:34:17.017Z,6.50
2023-03-08T11:36:51.769Z,6.50
2023-03-08T11:39:27.938Z,6.60
2023-03-08T11:42:01.434Z,6.60
2023-03-08T11:44:49.587Z,6.40
2023-03-08T11:48:02.580Z,6.30
2023-03-08T11:50:35.005Z,6.30
2023-03-08T11:53:13.323Z,6.30
2023-03-08T11:55:55.898Z,6.30
2023-03-08T11:58:28.789Z,6.10
2023-03-08T12:01:01.562Z,5.90
2023-03-08T12:03:45.256Z,5.90
2023-03-08T12:06:28.380Z,5.90
2023-03-08T12:09:02.571Z,5.90
2023-03-08T12:11:33.946Z,5.80
2023-03-08T12:14:07.909Z,5.90
2023-03-08T12:16:42.133Z,5.90
2023-03-08T12:19:18.269Z,5.70
2023-03-08T12:21:53.487Z,5.40
2023-03-08T12:24:31.975Z,5.40
2023-03-08T12:27:06.691Z,5.40
2023-03-08T12:29:39.780Z,5.40
2023-03-08T12:32:08.804Z,5.40
2023-03-08T12:34:42.172Z,5.50
2023-03-08T12:37:23.160Z,5.60
2023-03-08T12:40:00.072Z,5.70
2023-03-08T12:42:34.021Z,5.70
2023-03-08T12:45:11.202Z,5.70
2023-03-08T12:47:39.953Z,5.50
2023-03-08T12:50:11.701Z,5.40
2023-03-08T12:52:41.173Z,5.30
2023-03-08T12:55:19.584Z,5.20
2023-03-08T12:57:50.310Z,5.20
2023-03-08T13:00:33.087Z,5.30
2023-03-08T13:03:04.505Z,5.30
2023-03-08T13:05:36.475Z,5.20
2023-03-08T13:08:21.337Z,5.20
2023-03-08T13:11:01.976Z,5.30
2023-03-08T13:13:39.700Z,5.20
2023-03-08T13:16:32.817Z,5.30
2023-03-08T13:19:25.691Z,5.30
2023-03-08T13:22:01.815Z,5.20
2023-03-08T13:24:45.415Z,5.10
2023-03-08T13:27:22.643Z,4.90
2023-03-08T13:29:50.865Z,4.70
2023-03-08T13:32:21.076Z,4.50
2023-03-08T13:35:00.131Z,4.40
2023-03-08T13:37:32.204Z,4.40
2023-03-08T13:40:02.283Z,4.30
2023-03-08T13:42:30.575Z,4.40
2023-03-08T13:45:09.839Z,4.40
2023-03-08T13:47:41.007Z,4.30
2023-03-08T13:50:18.112Z,4.30
2023-03-08T13:52:46.239Z,4.30
2023-03-08T13:55:21.455Z,4.30
2023-03-08T13:57:53.547Z,4.40
2023-03-08T14:00:27.227Z,4.40
2023-03-08T14:02:55.568Z,4.30
2023-03-08T14:05:25.991Z,4.30
2023-03-08T14:08:01.831Z,4.20
2023-03-08T14:10:38.604Z,4.10
2023-03-08T14:13:08.529Z,4.00
2023-03-08T14:15:40.709Z,4.00
2023-03-08T14:18:17.672Z,3.80
2023-03-08T14:20:45.894Z,3.60
2023-03-08T14:23:24.039Z,3.50
2023-03-08T14:25:58.944Z,3.60
2023-03-08T14:28:41.040Z,3.50
2023-03-08T14:31:28.025Z,3.40
2023-03-08T14:33:59.160Z,3.30
2023-03-08T14:36:29.537Z,3.20
2023-03-08T14:38:59.996Z,3.10
2023-03-08T14:41:35.248Z,3.10
2023-03-08T14:44:06.278Z,3.00
2023-03-08T14:46:34.424Z,3.00
2023-03-08T14:49:04.637Z,3.00
2023-03-08T14:51:41.092Z,3.00
2023-03-08T14:54:23.503Z,3.00
2023-03-08T14:56:53.691Z,2.80
2023-03-08T14:59:27.699Z,2.80
2023-03-08T15:01:56.291Z,2.70
2023-03-08T15:04:27.733Z,2.70
2023-03-08T15:06:56.223Z,2.70
2023-03-08T15:09:26.301Z,2.70
2023-03-08T15:11:58.449Z,2.60
2023-03-08T15:14:26.487Z,2.60
2023-03-08T15:16:55.695Z,2.50
2023-03-08T15:19:23.909Z,2.40
2023-03-08T15:21:51.877Z,2.50
2023-03-08T15:24:21.274Z,2.30
2023-03-08T15:26:49.154Z,2.20
2023-03-08T15:29:27.568Z,2.10
2023-03-08T15:31:58.980Z,2.10
2023-03-08T15:34:28.681Z,2.00
2023-03-08T15:36:58.809Z,2.00
2023-03-08T15:39:27.098Z,1.90
2023-03-08T15:41:55.253Z,1.80
2023-03-08T15:44:24.593Z,1.70
2023-03-08T15:46:53.101Z,1.70
2023-03-08T15:49:23.777Z,1.70
2023-03-08T15:51:56.022Z,1.70
2023-03-08T15:54:27.007Z,1.60
2023-03-08T15:56:55.005Z,1.60
2023-03-08T15:59:25.548Z,1.50
2023-03-08T16:01:54.502Z,1.50
2023-03-08T16:04:22.720Z,1.50
2023-03-08T16:06:52.469Z,1.40
2023-03-08T16:09:23.073Z,1.40
2023-03-08T16:11:53.607Z,1.40
2023-03-08T16:14:23.487Z,1.30
2023-03-08T16:16:53.156Z,1.30
2023-03-08T16:19:22.450Z,1.30
2023-03-08T16:21:52.135Z,1.20
2023-03-08T16:24:20.167Z,1.20
2023-03-08T16:26:50.675Z,1.20
2023-03-08T16:29:22.171Z,1.10
2023-03-08T16:31:52.114Z,1.10
2023-03-08T16:34:20.448Z,1.10
2023-03-08T16:36:48.730Z,1.00
2023-03-08T16:39:16.728Z,1.10
2023-03-08T16:41:45.046Z,1.10
2023-03-08T16:44:21.179Z,1.10
2023-03-08T16:46:49.938Z,1.10
2023-03-08T16:49:20.776Z,1.10
2023-03-08T16:51:50.423Z,1.00
2023-03-08T16:54:18.699Z,1.00
2023-03-08T16:56:46.720Z,0.90
2023-03-08T16:59:16.568Z,0.90
2023-03-08T17:01:47.581Z,0.90
2023-03-08T17:04:15.775Z,0.90
2023-03-08T17:06:47.794Z,0.80
2023-03-08T17:09:15.785Z,0.80
2023-03-08T17:11:49.395Z,0.80
2023-03-08T17:14:19.438Z,0.80
2023-03-08T17:16:47.537Z,0.80
2023-03-08T17:19:24.673Z,0.80
2023-03-08T17:21:54.493Z,0.80
2023-03-08T17:24:30.968Z,0.80
2023-03-08T17:27:00.860Z,0.80
2023-03-08T17:29:31.049Z,0.70
2023-03-08T17:32:08.079Z,0.80
2023-03-08T17:34:37.404Z,0.80
2023-03-08T17:37:12.107Z,0.80
2023-03-08T17:39:43.803Z,0.70
2023-03-08T17:42:12.232Z,0.70
2023-03-08T17:44:41.942Z,0.70
2023-03-08T17:47:11.444Z,0.70
2023-03-08T17:49:40.625Z,0.70
2023-03-08T17:52:10.994Z,0.70
2023-03-08T17:54:38.953Z,0.60
2023-03-08T17:57:07.145Z,0.70
2023-03-08T17:59:35.231Z,0.60
2023-03-08T18:02:03.387Z,0.70
2023-03-08T18:04:31.602Z,0.70
2023-03-08T18:06:59.896Z,0.60
2023-03-08T18:09:29.824Z,0.60
2023-03-08T18:11:57.993Z,0.70
2023-03-08T18:14:37.904Z,0.70
2023-03-08T18:17:08.532Z,0.70
2023-03-08T18:19:36.811Z,0.70
2023-03-08T18:22:05.795Z,0.60
2023-03-08T18:24:35.248Z,0.60
2023-03-08T18:27:05.479Z,0.60
2023-03-08T18:29:35.732Z,0.60
2023-03-08T18:32:04.225Z,0.60
2023-03-08T18:34:32.309Z,0.60
2023-03-08T18:37:00.416Z,0.60
2023-03-08T18:39:28.512Z,0.50
2023-03-08T18:42:00.052Z,0.50
2023-03-08T18:44:28.403Z,0.50
2023-03-08T18:46:56.856Z,0.60
2023-03-08T18:49:25.208Z,0.60
2023-03-08T18:51:53.556Z,0.60
2023-03-08T18:54:21.663Z,0.60
2023-03-08T18:56:53.687Z,0.60
2023-03-08T19:01:52.551Z,0.50
2023-03-08T19:04:20.648Z,0.50
2023-03-08T19:06:48.664Z,0.60
2023-03-08T19:09:18.687Z,0.50
2023-03-08T19:11:48.173Z,0.50
2023-03-08T19:14:16.996Z,0.50
2023-03-08T19:16:45.103Z,0.50
2023-03-08T19:19:15.991Z,0.50
2023-03-08T19:21:45.925Z,0.50
2023-03-08T19:24:15.617Z,0.50
2023-03-08T19:26:47.426Z,0.40
2023-03-08T19:29:17.521Z,0.40
2023-03-08T19:31:47.477Z,0.40
2023-03-08T19:34:17.376Z,0.40
2023-03-08T19:36:46.853Z,0.40
2023-03-08T19:39:16.454Z,0.40
2023-03-08T19:41:44.967Z,0.50
2023-03-08T19:44:12.968Z,0.40
2023-03-08T19:46:41.369Z,0.40
2023-03-08T19:49:13.671Z,0.40
2023-03-08T19:51:44.130Z,0.40
2023-03-08T19:54:13.018Z,0.30
2023-03-08T19:56:41.042Z,0.30
2023-03-08T19:59:09.263Z,0.30
2023-03-08T20:01:38.105Z,0.30
2023-03-08T20:04:06.700Z,0.30
2023-03-08T20:06:38.578Z,0.30
2023-03-08T20:09:10.470Z,0.30
2023-03-08T20:11:39.603Z,0.20
2023-03-08T20:14:08.682Z,0.30
2023-03-08T20:16:37.021Z,0.30
2023-03-08T20:19:05.007Z,0.30
2023-03-08T20:21:33.152Z,0.30
2023-03-08T20:24:01.179Z,0.30
2023-03-08T20:26:32.024Z,0.20
2023-03-08T20:29:00.457Z,0.30
2023-03-08T20:31:30.104Z,0.20
2023-03-08T20:33:58.659Z,0.20
2023-03-08T20:36:27.002Z,0.20
2023-03-08T20:38:55.290Z,0.30
2023-03-08T20:41:23.628Z,0.30
2023-03-08T20:43:56.205Z,0.30
2023-03-08T20:46:26.570Z,0.20
2023-03-08T20:48:55.521Z,0.20
2023-03-08T20:51:24.355Z,0.30
2023-03-08T20:53:54.481Z,0.20
2023-03-08T20:56:23.992Z,0.20
2023-03-08T20:58:55.314Z,0.30
2023-03-08T21:01:25.840Z,0.20
2023-03-08T21:03:54.266Z,0.20
2023-03-08T21:06:24.526Z,0.30
2023-03-08T21:08:52.999Z,0.30
2023-03-08T21:11:21.750Z,0.20
2023-03-08T21:13:50.569Z,0.20
2023-03-08T21:16:21.897Z,0.20
2023-03-08T21:18:51.325Z,0.20
2023-03-08T21:21:21.763Z,0.30
2023-03-08T21:23:52.379Z,0.20
2023-03-08T21:26:20.945Z,0.20
2023-03-08T21:28:49.190Z,0.20
2023-03-08T21:31:17.510Z,0.20
2023-03-08T21:33:47.183Z,0.30
2023-03-08T21:36:16.661Z,0.30
2023-03-08T21:38:44.727Z,0.30
2023-03-08T21:41:19.434Z,0.20
2023-03-08T21:43:47.354Z,0.20
2023-03-08T21:46:15.802Z,0.20
2023-03-08T21:48:43.856Z,0.20
2023-03-08T21:51:13.923Z,0.20
2023-03-08T21:53:43.068Z,0.20
2023-03-08T21:56:12.793Z,0.20
2023-03-08T21:58:40.765Z,0.20
2023-03-08T22:01:18.000Z,0.20
2023-03-08T22:03:45.909Z,0.20
2023-03-08T22:06:15.310Z,0.20
2023-03-08T22:08:43.454Z,0.20
2023-03-08T22:11:11.650Z,0.20
2023-03-08T22:13:40.150Z,0.20
2023-03-08T22:16:08.801Z,0.20
2023-03-08T22:18:36.816Z,0.30
2023-03-08T22:21:05.089Z,0.30
2023-03-08T22:23:34.392Z,0.30
2023-03-08T22:26:02.418Z,0.30
2023-03-08T22:28:30.633Z,0.30
2023-03-08T22:30:58.757Z,0.30
2023-03-08T22:33:26.792Z,0.30
2023-03-08T22:35:54.884Z,0.30
2023-03-08T22:38:22.843Z,0.30
2023-03-08T22:40:52.487Z,0.40
2023-03-08T22:43:20.395Z,0.40
2023-03-08T22:45:48.404Z,0.40
2023-03-08T22:48:16.394Z,0.40
2023-03-08T22:50:44.456Z,0.40
2023-03-08T22:53:12.510Z,0.40
2023-03-08T22:55:47.897Z,0.40
2023-03-08T22:58:17.177Z,0.40
2023-03-08T23:00:45.171Z,0.40
2023-03-08T23:03:13.282Z,0.30
2023-03-08T23:05:41.340Z,0.40
2023-03-08T23:08:09.408Z,0.40
2023-03-08T23:10:37.448Z,0.40
2023-03-08T23:13:05.598Z,0.40
2023-03-08T23:15:35.079Z,0.40
2023-03-08T23:18:03.150Z,0.50
2023-03-08T23:20:31.271Z,0.40
2023-03-08T23:22:59.532Z,0.50
2023-03-08T23:25:27.937Z,0.40
2023-03-08T23:27:56.081Z,0.40
2023-03-08T23:30:24.280Z,0.40
2023-03-08T23:32:53.674Z,0.50
2023-03-08T23:35:21.819Z,0.50
2023-03-08T23:37:49.989Z,0.50
2023-03-08T23:40:18.140Z,0.40
2023-03-08T23:42:49.202Z,0.50
2023-03-08T23:45:17.368Z,0.50
2023-03-08T23:47:45.383Z,0.40
2023-03-08T23:50:14.969Z,0.40
2023-03-08T23:52:43.050Z,0.40
2023-03-08T23:55:12.437Z,0.40
2023-03-08T23:57:40.629Z,0.40
